Time;durP1;ratioP1;P1;durP2;ratioP2;P2;SDS_P1;SDS_P2;PMS_P1;PMS_P2;Temp;Humidity;BMP_temperature;BMP_pressure;BME280_temperature;BME280_humidity;BME280_pressure;Samples;Min_cycle;Max_cycle;Signal;HPM_P1;HPM_P2
2021/05/29 00:01:14;;;;;;;7.40;4.10;;;;;;;10.38;76.68;100950.16;5057900;28;20082;-67
2021/05/29 00:03:41;;;;;;;10.48;3.92;;;;;;;10.40;77.24;100947.44;5057353;28;20060;-67
2021/05/29 00:06:08;;;;;;;6.10;4.35;;;;;;;10.34;76.87;100953.91;5057164;28;20094;-69
2021/05/29 00:08:35;;;;;;;8.77;3.92;;;;;;;10.35;76.56;100944.94;5058621;28;20049;-69
2021/05/29 00:11:03;;;;;;;7.20;3.80;;;;;;;10.32;76.88;100961.13;5059771;28;20056;-69
2021/05/29 00:13:31;;;;;;;10.43;4.40;;;;;;;10.24;77.06;100941.94;5057742;28;20098;-69
2021/05/29 00:15:59;;;;;;;8.98;4.15;;;;;;;10.34;76.71;100953.91;5056625;28;20053;-69
2021/05/29 00:18:26;;;;;;;10.05;4.32;;;;;;;10.24;77.35;100947.28;5050355;28;20049;-70
2021/05/29 00:20:54;;;;;;;7.72;4.30;;;;;;;10.26;77.17;100940.94;5037525;28;20042;-69
2021/05/29 00:23:21;;;;;;;6.63;4.45;;;;;;;10.16;77.55;100947.63;5037083;28;20513;-68
2021/05/29 00:25:48;;;;;;;6.25;4.38;;;;;;;10.15;77.39;100945.91;5035936;28;20046;-68
2021/05/29 00:28:15;;;;;;;11.00;4.20;;;;;;;10.15;77.53;100941.41;5037140;28;20095;-69
2021/05/29 00:30:43;;;;;;;8.30;4.75;;;;;;;10.15;77.76;100946.75;5036068;28;20103;-69
2021/05/29 00:33:10;;;;;;;11.02;4.50;;;;;;;10.04;78.03;100941.91;5037328;28;20386;-68
2021/05/29 00:35:37;;;;;;;8.40;4.57;;;;;;;10.04;78.16;100946.41;5037432;28;20054;-70
2021/05/29 00:38:04;;;;;;;6.88;4.50;;;;;;;10.01;78.61;100947.41;5037050;28;20072;-70
2021/05/29 00:40:31;;;;;;;9.68;4.75;;;;;;;9.95;78.62;100942.34;5036824;28;20045;-68
2021/05/29 00:42:58;;;;;;;9.77;5.40;;;;;;;9.99;78.66;100951.06;5036954;28;20049;-68
2021/05/29 00:45:26;;;;;;;9.98;5.30;;;;;;;9.89;78.97;100942.63;5036686;28;20115;-67
2021/05/29 00:47:53;;;;;;;7.88;5.15;;;;;;;9.85;79.21;100936.56;5037090;28;20049;-68
2021/05/29 00:50:20;;;;;;;11.77;6.53;;;;;;;9.74;78.75;100917.53;5036886;28;20050;-68
2021/05/29 00:52:46;;;;;;;6.95;5.13;;;;;;;9.85;78.85;100936.56;5035980;28;20095;-68
2021/05/29 00:55:15;;;;;;;10.15;5.68;;;;;;;9.87;78.85;100939.19;5036639;28;20403;-68
2021/05/29 00:57:48;;;;;;;8.50;5.70;;;;;;;9.84;78.67;100940.19;5036489;28;20119;-68
2021/05/29 01:00:18;;;;;;;9.70;5.47;;;;;;;9.82;78.97;100942.06;5036416;28;20470;-68
2021/05/29 01:02:49;;;;;;;9.40;5.83;;;;;;;9.78;78.85;100945.78;5036793;28;20045;-68
2021/05/29 01:05:18;;;;;;;13.23;5.72;;;;;;;9.73;79.31;100953.13;5035784;28;20049;-68
2021/05/29 01:07:50;;;;;;;7.35;5.18;;;;;;;9.69;79.45;100951.53;5036556;28;20054;-68
2021/05/29 01:10:18;;;;;;;11.80;5.78;;;;;;;9.69;79.74;100946.22;5035033;28;20049;-68
2021/05/29 01:12:45;;;;;;;10.80;6.38;;;;;;;9.65;79.57;100954.31;5036530;28;20045;-68
2021/05/29 01:15:13;;;;;;;12.82;6.05;;;;;;;9.67;79.99;100948.06;5035279;28;20108;-68
2021/05/29 01:17:40;;;;;;;10.63;6.38;;;;;;;9.66;79.98;100949.88;5035875;28;20439;-68
2021/05/29 01:20:08;;;;;;;8.90;5.25;;;;;;;9.60;79.93;100948.34;5056056;28;20045;-68
2021/05/29 01:22:40;;;;;;;10.57;6.05;;;;;;;9.56;80.05;100953.88;5055878;28;20118;-68
2021/05/29 01:25:18;;;;;;;11.07;5.78;;;;;;;9.51;80.42;100954.06;5055849;28;20111;-68
2021/05/29 01:27:52;;;;;;;9.65;6.03;;;;;;;9.49;80.71;100951.47;5056082;28;20052;-67
2021/05/29 01:30:20;;;;;;;9.00;5.75;;;;;;;9.40;80.77;100954.56;5056054;28;20045;-69
2021/05/29 01:32:47;;;;;;;11.65;6.10;;;;;;;9.46;80.90;100958.72;5054722;28;20106;-68
2021/05/29 01:35:14;;;;;;;9.50;6.97;;;;;;;9.44;80.97;100960.59;5055932;28;20095;-68
2021/05/29 01:37:41;;;;;;;11.95;5.90;;;;;;;9.42;80.83;100954.50;5055682;28;20126;-68
2021/05/29 01:40:09;;;;;;;10.10;6.22;;;;;;;9.33;81.01;100961.94;5054633;28;20426;-68
2021/05/29 01:42:37;;;;;;;9.23;5.80;;;;;;;9.31;81.47;100963.81;5054855;28;20053;-68
2021/05/29 01:45:07;;;;;;;12.27;5.85;;;;;;;9.33;81.45;100966.41;5055574;28;20052;-68
2021/05/29 01:47:40;;;;;;;13.30;6.22;;;;;;;9.24;81.66;100951.69;5055594;28;20138;-68
2021/05/29 01:50:07;;;;;;;16.10;6.75;;;;;;;9.24;81.76;100957.88;5055476;28;20048;-68
2021/05/29 01:53:04;;;;;;;10.38;6.15;;;;;;;9.22;81.93;100964.19;5055481;28;20430;-68
2021/05/29 01:55:32;;;;;;;8.02;5.45;;;;;;;9.18;82.11;100958.13;5043147;28;20052;-68
2021/05/29 01:58:00;;;;;;;12.60;6.43;;;;;;;9.17;82.53;100966.19;5055387;28;20115;-68
2021/05/29 02:00:28;;;;;;;12.82;6.07;;;;;;;9.16;82.34;100967.13;5055453;28;20057;-68
2021/05/29 02:02:56;;;;;;;12.68;6.10;;;;;;;9.09;82.50;100955.84;5055315;28;20102;-68
2021/05/29 02:05:28;;;;;;;10.82;6.50;;;;;;;9.13;82.60;100967.22;5055347;28;20048;-67
2021/05/29 02:07:57;;;;;;;9.10;6.35;;;;;;;9.09;82.30;100964.72;5055677;28;20052;-68
2021/05/29 02:10:27;;;;;;;12.77;6.63;;;;;;;9.12;82.75;100965.50;5055417;28;20110;-68
2021/05/29 02:12:56;;;;;;;9.52;6.53;;;;;;;9.10;82.77;100965.59;5054004;28;20486;-68
2021/05/29 02:15:29;;;;;;;12.70;6.45;;;;;;;9.05;82.86;100973.75;5055038;28;20099;-68
2021/05/29 02:17:59;;;;;;;10.68;6.75;;;;;;;8.98;83.32;100972.28;5052079;28;20049;-68
2021/05/29 02:20:47;;;;;;;12.98;6.95;;;;;;;8.89;83.71;100975.31;5035178;28;20107;-68
2021/05/29 02:23:19;;;;;;;12.18;6.75;;;;;;;8.87;83.83;100972.72;5035052;28;20057;-68
2021/05/29 02:25:47;;;;;;;14.13;7.55;;;;;;;8.77;84.10;100974.03;5034403;28;20053;-68
2021/05/29 02:28:14;;;;;;;11.63;7.13;;;;;;;8.81;83.92;100980.94;5035262;28;20049;-69
2021/05/29 02:30:42;;;;;;;8.82;5.82;;;;;;;8.76;84.00;100977.63;5034896;28;20068;-68
2021/05/29 02:33:09;;;;;;;11.73;6.80;;;;;;;8.74;83.84;100977.69;5035105;28;20106;-67
2021/05/29 02:35:36;;;;;;;14.82;7.53;;;;;;;8.76;83.81;100977.63;5034926;28;20053;-69
2021/05/29 02:38:05;;;;;;;10.98;7.20;;;;;;;8.63;84.62;100982.56;5035219;28;20111;-68
2021/05/29 02:40:32;;;;;;;9.40;6.53;;;;;;;8.62;84.38;100976.38;5034957;28;20064;-68
2021/05/29 02:42:59;;;;;;;10.98;6.97;;;;;;;8.62;84.50;100975.50;5035189;28;20049;-68
2021/05/29 02:45:26;;;;;;;15.75;7.35;;;;;;;8.55;85.16;100978.41;5034776;28;20427;-68
2021/05/29 02:47:53;;;;;;;16.75;7.28;;;;;;;8.51;85.15;100982.09;5034870;28;20053;-68
2021/05/29 02:50:22;;;;;;;16.73;7.35;;;;;;;8.50;85.28;100982.16;5038588;28;20045;-68
2021/05/29 02:52:49;;;;;;;16.52;6.82;;;;;;;8.50;84.88;100991.00;5039216;28;20057;-68
2021/05/29 02:55:22;;;;;;;11.68;6.82;;;;;;;8.50;85.03;100984.81;5038811;28;20439;-68
2021/05/29 02:57:54;;;;;;;15.75;6.93;;;;;;;8.46;85.29;100981.41;5039000;28;20123;-68
2021/05/29 03:00:32;;;;;;;12.63;7.63;;;;;;;8.44;85.43;100980.59;5037675;28;20123;-69
2021/05/29 03:03:00;;;;;;;11.88;6.75;;;;;;;8.29;85.32;100958.13;5038073;28;20054;-68
2021/05/29 03:05:27;;;;;;;12.13;7.20;;;;;;;8.43;85.38;100987.72;5038704;28;20047;-69
2021/05/29 03:07:53;;;;;;;12.40;6.78;;;;;;;8.42;85.51;100979.78;5038842;28;20061;-68
2021/05/29 03:10:21;;;;;;;13.10;7.35;;;;;;;8.38;85.52;100976.38;5038825;28;20347;-68
2021/05/29 03:12:52;;;;;;;;;;;;;;;8.38;85.49;100979.03;5039209;28;20060;-68
2021/05/29 03:15:23;;;;;;;10.18;6.50;;;;;;;8.32;85.89;100981.09;5038599;28;20019;-68
2021/05/29 03:17:51;;;;;;;13.10;7.22;;;;;;;8.25;86.05;100983.09;5040823;28;20061;-68
2021/05/29 03:20:21;;;;;;;11.30;7.35;;;;;;;8.26;85.81;100979.50;5058679;28;20152;-68
2021/05/29 03:22:48;;;;;;;11.48;7.13;;;;;;;8.24;85.66;100987.53;5057544;28;20049;-68
2021/05/29 03:25:17;;;;;;;15.20;7.43;;;;;;;8.13;85.93;100979.13;5058435;28;20208;-68
2021/05/29 03:27:46;;;;;;;12.80;7.30;;;;;;;8.18;85.91;100981.59;5058458;28;20327;-68
2021/05/29 03:30:16;;;;;;;14.57;7.32;;;;;;;8.13;85.41;100985.28;5058100;28;20430;-68
2021/05/29 03:32:44;;;;;;;14.93;7.40;;;;;;;8.13;86.16;100984.44;5058349;28;20091;-69
2021/05/29 03:35:13;;;;;;;11.27;7.30;;;;;;;8.01;86.07;100978.63;5058108;28;20048;-68
2021/05/29 03:37:40;;;;;;;11.98;6.47;;;;;;;8.04;86.01;100987.41;5058144;28;20056;-68
2021/05/29 03:40:09;;;;;;;14.77;7.55;;;;;;;8.01;86.06;100989.28;5058024;28;20045;-67
2021/05/29 03:42:37;;;;;;;12.93;7.43;;;;;;;8.05;86.01;100989.19;5057142;28;20103;-67
2021/05/29 03:45:07;;;;;;;12.13;7.60;;;;;;;7.93;86.20;100983.38;5057909;28;20056;-68
2021/05/29 03:47:35;;;;;;;11.70;7.25;;;;;;;7.94;86.44;100987.75;5057997;28;20102;-67
2021/05/29 03:50:03;;;;;;;11.98;7.10;;;;;;;7.98;86.34;100999.16;5057732;28;20053;-67
2021/05/29 03:52:29;;;;;;;11.80;7.47;;;;;;;7.97;86.63;101000.97;5057404;28;20381;-67
2021/05/29 03:54:56;;;;;;;12.57;6.88;;;;;;;8.00;86.56;100998.19;5057466;28;20052;-67
2021/05/29 03:57:23;;;;;;;15.50;7.60;;;;;;;7.98;86.75;100997.38;5056606;28;20115;-67
2021/05/29 03:59:49;;;;;;;12.23;6.90;;;;;;;7.98;86.93;101000.03;5056603;28;20060;-68
2021/05/29 04:02:16;;;;;;;14.55;7.55;;;;;;;7.95;87.28;101002.78;5056435;28;20049;-67
2021/05/29 04:04:42;;;;;;;12.18;7.10;;;;;;;7.96;86.32;100993.88;5056488;28;20053;-68
2021/05/29 04:07:09;;;;;;;16.05;7.43;;;;;;;8.01;86.91;101007.88;5056604;28;20057;-68
2021/05/29 04:09:36;;;;;;;12.68;7.90;;;;;;;8.06;86.91;101006.84;5057704;28;20049;-68
2021/05/29 04:12:03;;;;;;;11.18;7.60;;;;;;;8.06;86.66;101007.72;5057433;28;20084;-67
2021/05/29 04:14:30;;;;;;;16.80;7.82;;;;;;;8.06;86.75;101015.69;5057383;28;20392;-68
2021/05/29 04:16:56;;;;;;;14.63;7.47;;;;;;;8.16;86.57;101013.56;5057469;28;20397;-67
2021/05/29 04:19:23;;;;;;;13.73;7.30;;;;;;;8.19;86.54;101012.56;5042140;28;20049;-69
2021/05/29 04:21:50;;;;;;;12.93;7.50;;;;;;;8.11;86.43;101013.72;5036185;28;20351;-69
2021/05/29 04:24:16;;;;;;;9.98;7.13;;;;;;;8.15;86.61;101015.38;5037462;28;20104;-69
2021/05/29 04:26:43;;;;;;;13.27;7.13;;;;;;;8.20;86.68;101015.19;5037230;28;20050;-69
2021/05/29 04:29:10;;;;;;;11.32;7.43;;;;;;;8.28;86.72;101015.75;5037382;28;20089;-69
2021/05/29 04:31:36;;;;;;;11.68;7.57;;;;;;;8.33;87.05;101020.06;5036010;28;20397;-69
2021/05/29 04:34:03;;;;;;;8.80;6.78;;;;;;;8.41;86.97;101016.16;5036920;28;20435;-69
2021/05/29 04:36:30;;;;;;;13.48;7.65;;;;;;;8.37;87.16;101013.66;5035913;28;20123;-69
2021/05/29 04:38:56;;;;;;;13.43;8.20;;;;;;;8.38;87.55;101020.72;5037228;28;20098;-69
2021/05/29 04:41:23;;;;;;;12.57;7.00;;;;;;;8.47;86.89;101024.81;5037084;28;20049;-69
2021/05/29 04:43:50;;;;;;;12.50;7.43;;;;;;;8.52;86.64;101026.44;5037256;28;20103;-69
2021/05/29 04:46:17;;;;;;;15.43;7.55;;;;;;;8.55;86.58;101012.13;5035827;28;20057;-69
2021/05/29 04:48:44;;;;;;;13.15;7.13;;;;;;;8.61;86.42;101027.00;5036839;28;20049;-69
2021/05/29 04:51:15;;;;;;;13.18;7.13;;;;;;;8.59;86.32;101011.09;5035422;28;20041;-69
2021/05/29 04:53:42;;;;;;;;;;;;;;;8.89;85.21;101045.41;5036219;28;20045;-67
2021/05/29 04:56:11;;;;;;;12.23;7.68;;;;;;;8.86;85.70;101040.19;5035583;28;19975;-69
2021/05/29 04:58:38;;;;;;;12.68;7.55;;;;;;;8.94;85.38;101023.94;5036326;28;20465;-69
2021/05/29 05:01:06;;;;;;;12.40;7.95;;;;;;;9.02;85.14;101037.78;5036809;28;20058;-69
2021/05/29 05:03:34;;;;;;;17.98;8.32;;;;;;;9.09;84.55;101039.28;5036579;28;20053;-69
2021/05/29 05:06:01;;;;;;;11.40;7.57;;;;;;;9.21;85.29;101047.72;5036721;28;20351;-69
2021/05/29 05:08:28;;;;;;;9.57;7.93;;;;;;;9.32;84.64;101050.78;5035440;28;20050;-69
2021/05/29 05:10:55;;;;;;;11.27;8.05;;;;;;;9.33;84.77;101049.84;5034838;28;20053;-69
2021/05/29 05:13:23;;;;;;;14.57;8.20;;;;;;;9.42;84.20;101045.09;5036178;28;20053;-69
2021/05/29 05:15:51;;;;;;;11.35;7.90;;;;;;;9.48;84.14;101056.34;5036238;28;20383;-69
2021/05/29 05:18:20;;;;;;;14.38;7.60;;;;;;;9.49;84.43;101057.22;5041170;28;20045;-69
2021/05/29 05:20:47;;;;;;;12.27;7.82;;;;;;;9.58;84.67;101054.16;5056412;28;20226;-69
2021/05/29 05:23:14;;;;;;;19.80;9.15;;;;;;;9.62;84.86;101052.22;5055930;28;20056;-69
2021/05/29 05:25:41;;;;;;;13.32;8.48;;;;;;;9.72;84.11;101056.25;5056118;28;20060;-68
2021/05/29 05:28:12;;;;;;;14.10;8.00;;;;;;;9.74;83.88;101048.16;5055973;28;20060;-69
2021/05/29 05:30:39;;;;;;;18.45;8.88;;;;;;;9.78;84.19;101063.09;5055689;28;20098;-69
2021/05/29 05:33:06;;;;;;;8.68;7.10;;;;;;;9.84;83.35;101059.28;5055793;28;20107;-69
2021/05/29 05:35:33;;;;;;;13.27;8.05;;;;;;;9.95;83.34;101053.47;5055831;28;20053;-69
2021/05/29 05:38:00;;;;;;;23.67;8.20;;;;;;;10.01;83.52;101059.41;5055757;28;20061;-69
2021/05/29 05:40:27;;;;;;;14.35;8.05;;;;;;;9.98;83.42;101053.34;5054850;28;20083;-69
2021/05/29 05:42:53;;;;;;;16.48;8.40;;;;;;;10.07;83.26;101054.75;5055696;28;20324;-69
2021/05/29 05:45:20;;;;;;;22.33;9.15;;;;;;;10.26;81.59;101058.34;5055640;28;20053;-69
2021/05/29 05:47:47;;;;;;;19.02;8.52;;;;;;;10.24;82.14;101054.84;5055519;28;20044;-68
2021/05/29 05:50:14;;;;;;;25.05;8.35;;;;;;;10.33;81.28;101067.78;5054793;28;20079;-69
2021/05/29 05:52:40;;;;;;;16.90;8.55;;;;;;;10.40;80.94;101059.50;5054367;28;20041;-69
2021/05/29 05:55:09;;;;;;;19.38;8.65;;;;;;;10.44;80.78;101064.66;5055352;28;20056;-70
2021/05/29 05:57:36;;;;;;;20.85;7.85;;;;;;;10.51;80.73;101065.22;5054709;28;20053;-70
2021/05/29 06:00:06;;;;;;;16.38;9.10;;;;;;;10.59;81.24;101075.56;5046232;28;20056;-70
2021/05/29 06:02:33;;;;;;;15.45;7.35;;;;;;;10.65;81.22;101077.06;5028847;28;20045;-73
2021/05/29 06:05:00;;;;;;;13.43;7.70;;;;;;;10.71;80.78;101076.78;5047413;28;20496;-72
2021/05/29 06:07:27;;;;;;;14.30;8.18;;;;;;;10.83;79.56;101080.66;5050062;28;20048;-72
2021/05/29 06:09:53;;;;;;;12.70;7.90;;;;;;;10.97;78.31;101082.69;5050372;28;20098;-74
2021/05/29 06:12:21;;;;;;;16.88;8.40;;;;;;;11.09;78.14;101082.13;5049468;28;20049;-68
2021/05/29 06:20:40;;;;;;;15.70;6.72;;;;;;;11.31;76.59;101086.41;5012107;28;20050;-71
2021/05/29 06:23:07;;;;;;;9.05;5.85;;;;;;;11.48;73.91;101090.91;5032591;28;20111;-73
2021/05/29 06:25:34;;;;;;;12.30;5.18;;;;;;;11.49;72.69;101078.41;5052621;28;20102;-71
2021/05/29 06:28:01;;;;;;;13.65;6.40;;;;;;;11.67;72.88;101101.53;5035195;28;20504;-77
2021/05/29 06:30:28;;;;;;;9.98;5.40;;;;;;;11.64;73.57;101099.03;5034870;28;20099;-72
2021/05/29 06:32:55;;;;;;;11.95;5.30;;;;;;;11.76;72.45;101097.53;5035339;28;20104;-74
2021/05/29 06:35:22;;;;;;;11.88;5.28;;;;;;;11.80;71.98;101107.16;5045140;28;20060;-74
2021/05/29 06:37:49;;;;;;;7.50;4.85;;;;;;;11.85;72.16;101100.69;5041755;28;20085;-71
2021/05/29 06:40:16;;;;;;;9.50;5.82;;;;;;;11.91;72.04;101109.28;5050753;28;20056;-70
2021/05/29 06:42:42;;;;;;;11.13;5.95;;;;;;;12.04;71.42;101109.53;5050444;28;20079;-72
2021/05/29 06:45:10;;;;;;;9.75;5.65;;;;;;;12.16;70.55;101107.16;5049079;28;20045;-70
2021/05/29 06:47:38;;;;;;;9.30;5.63;;;;;;;12.23;70.98;101113.91;5046000;28;20098;-70
2021/05/29 06:50:09;;;;;;;11.05;5.38;;;;;;;12.32;70.92;101112.56;5052480;28;20455;-74
2021/05/29 06:52:39;;;;;;;8.88;5.00;;;;;;;12.39;70.16;101107.75;5043935;28;20095;-69
2021/05/29 07:00:38;;;;;;;8.98;5.78;;;;;;;12.57;69.82;101113.91;5045328;28;20074;-69
2021/05/29 07:03:05;;;;;;;9.55;5.93;;;;;;;12.75;69.35;101112.06;5053996;28;20049;-72
2021/05/29 07:05:34;;;;;;;8.82;5.55;;;;;;;12.77;69.27;101115.50;5054835;28;20053;-69
2021/05/29 07:08:00;;;;;;;7.90;5.25;;;;;;;12.82;68.32;101116.13;5052506;28;20461;-71
2021/05/29 07:10:27;;;;;;;8.57;5.35;;;;;;;12.92;68.55;101110.25;5047100;28;20497;-69
2021/05/29 07:12:54;;;;;;;10.25;5.35;;;;;;;13.01;68.25;101115.09;5052083;28;20128;-72
2021/05/29 07:15:25;;;;;;;8.25;5.63;;;;;;;13.10;67.63;101119.94;5046633;28;20103;-70
2021/05/29 07:17:54;;;;;;;8.18;5.10;;;;;;;13.18;69.28;101122.16;5051356;28;20049;-74
2021/05/29 07:20:21;;;;;;;12.15;5.93;;;;;;;13.19;68.09;101121.25;5034962;28;20076;-75
2021/05/29 07:22:48;;;;;;;9.80;5.57;;;;;;;13.27;66.71;101118.09;5037245;28;21401;-72
2021/05/29 07:25:15;;;;;;;8.80;5.22;;;;;;;13.39;67.55;101119.22;5035028;28;20057;-73
2021/05/29 07:27:42;;;;;;;6.63;3.95;;;;;;;13.49;65.57;101122.25;5034876;28;20411;-72
2021/05/29 07:30:09;;;;;;;9.60;4.80;;;;;;;13.58;64.96;101127.97;5041033;28;20123;-73
2021/05/29 07:32:36;;;;;;;8.93;5.45;;;;;;;13.66;65.62;101122.16;5040310;28;20400;-71
2021/05/29 07:35:04;;;;;;;8.60;4.88;;;;;;;13.63;65.83;101108.94;5037451;28;20049;-71
2021/05/29 07:37:31;;;;;;;11.02;4.95;;;;;;;13.71;65.92;101109.34;5049588;28;20102;-75
2021/05/29 07:39:58;;;;;;;13.45;4.97;;;;;;;13.84;65.90;101124.72;5047823;28;20378;-72
2021/05/29 07:42:25;;;;;;;13.38;5.82;;;;;;;13.84;66.13;101116.66;5050263;28;20053;-74
2021/05/29 07:44:51;;;;;;;9.80;5.15;;;;;;;14.05;65.26;101117.19;5045051;28;20049;-71
2021/05/29 07:47:21;;;;;;;11.63;5.60;;;;;;;14.10;63.70;101114.22;5051894;28;20485;-70
2021/05/29 07:49:47;;;;;;;11.15;5.25;;;;;;;14.08;64.89;101121.50;5058402;28;20045;-71
2021/05/29 07:52:14;;;;;;;8.63;4.88;;;;;;;14.19;63.95;101124.41;5054977;28;20413;-72
2021/05/29 07:54:41;;;;;;;9.82;5.95;;;;;;;14.38;62.73;101124.13;5051535;28;20049;-71
2021/05/29 07:57:11;;;;;;;9.50;5.40;;;;;;;14.38;64.30;101128.63;5048399;28;20045;-74
2021/05/29 07:59:39;;;;;;;13.00;5.75;;;;;;;14.49;64.29;101114.56;5048432;28;20500;-71
2021/05/29 08:02:06;;;;;;;9.77;5.45;;;;;;;14.65;63.84;101135.94;5047396;28;20093;-68
2021/05/29 08:04:33;;;;;;;8.98;4.82;;;;;;;14.60;62.66;101124.63;5054610;28;20049;-68
2021/05/29 08:07:00;;;;;;;8.90;4.65;;;;;;;14.65;63.19;101123.38;5046229;28;20045;-69
2021/05/29 08:09:27;;;;;;;14.60;4.18;;;;;;;14.72;62.62;101123.00;5054753;28;20514;-71
2021/05/29 08:11:53;;;;;;;13.57;5.00;;;;;;;14.85;62.44;101129.34;5041624;28;20041;-70
2021/05/29 08:14:21;;;;;;;10.25;5.43;;;;;;;14.89;61.82;101135.38;5020280;28;20046;-73
2021/05/29 08:16:48;;;;;;;12.27;5.15;;;;;;;14.91;61.58;101130.75;5039657;28;20435;-71
2021/05/29 08:19:15;;;;;;;16.80;5.50;;;;;;;15.05;62.30;101133.44;5045315;28;20045;-72
2021/05/29 08:21:45;;;;;;;8.75;5.28;;;;;;;15.03;61.42;101134.50;5044185;28;20045;-72
2021/05/29 08:24:13;;;;;;;24.23;5.50;;;;;;;15.15;61.01;101131.00;5045952;28;20093;-72
2021/05/29 08:26:40;;;;;;;187.02;13.80;;;;;;;15.19;60.22;101134.34;5051615;28;20053;-73
2021/05/29 08:29:07;;;;;;;10.88;4.60;;;;;;;15.17;59.35;101130.91;5048578;28;20103;-73
2021/05/29 08:31:34;;;;;;;5.95;3.60;;;;;;;15.14;58.85;101137.34;5045573;28;20064;-72
2021/05/29 08:34:02;;;;;;;5.53;3.83;;;;;;;15.04;57.26;101134.41;5047119;28;20040;-70
2021/05/29 08:36:29;;;;;;;7.68;3.35;;;;;;;15.19;57.45;101134.34;5046054;28;20489;-71
2021/05/29 08:39:00;;;;;;;10.00;4.18;;;;;;;15.29;57.34;101145.38;5048135;28;20049;-71
2021/05/29 08:41:27;;;;;;;8.20;3.90;;;;;;;15.37;56.77;101144.88;5048299;28;20053;-74
2021/05/29 08:43:53;;;;;;;5.68;3.15;;;;;;;15.43;55.32;101148.03;5042157;28;20451;-71
2021/05/29 08:46:21;;;;;;;7.93;2.58;;;;;;;15.42;55.01;101143.63;5044347;28;20087;-70
2021/05/29 08:48:48;;;;;;;10.73;2.63;;;;;;;15.54;53.61;101143.78;5044412;28;20324;-70
2021/05/29 08:51:17;;;;;;;61.28;5.45;;;;;;;15.69;53.88;101147.28;5035850;28;20049;-71
2021/05/29 08:53:59;;;;;;;332.67;17.92;;;;;;;15.96;48.44;101149.94;5056436;28;20110;-75
2021/05/29 08:56:27;;;;;;;32.35;2.33;;;;;;;16.08;50.21;101153.63;5063715;28;20049;-73
2021/05/29 08:58:54;;;;;;;196.95;13.07;;;;;;;16.37;48.47;101156.16;5053082;28;20049;-74
2021/05/29 09:01:23;;;;;;;4.25;2.03;;;;;;;16.45;46.85;101152.06;5045735;28;20385;-71
2021/05/29 09:04:05;;;;;;;2.90;1.60;;;;;;;16.62;45.05;101154.41;5046125;28;20712;-72
2021/05/29 09:06:32;;;;;;;2.38;1.30;;;;;;;16.67;43.95;101148.72;5040357;28;20057;-72
2021/05/29 09:09:03;;;;;;;5.05;1.63;;;;;;;16.75;43.29;101153.53;5048348;28;20049;-70
2021/05/29 09:11:49;;;;;;;;;;;;;;;16.84;45.57;101158.28;5038537;28;20053;-71
2021/05/29 09:14:28;;;;;;;2.30;1.52;;;;;;;17.01;44.25;101158.91;5036765;28;19951;-70
2021/05/29 09:17:06;;;;;;;4.10;1.70;;;;;;;16.97;43.90;101158.25;5046672;28;20091;-71
2021/05/29 09:20:02;;;;;;;2.83;1.85;;;;;;;16.97;46.28;101151.03;5043215;28;20049;-68
2021/05/29 09:22:54;;;;;;;19.98;4.95;;;;;;;17.01;47.29;101161.59;5041360;28;20441;-69
2021/05/29 09:25:23;;;;;;;135.93;31.85;;;;;;;17.01;49.59;101158.91;5045746;28;20049;-68
2021/05/29 09:27:57;;;;;;;22.30;7.35;;;;;;;17.08;53.98;101158.38;5039703;28;20049;-69
2021/05/29 09:30:49;;;;;;;8.35;3.50;;;;;;;17.22;49.83;101164.59;5046025;28;20044;-67
2021/05/29 09:33:28;;;;;;;14.93;5.03;;;;;;;17.17;49.15;101162.22;5042329;28;20048;-70
2021/05/29 09:35:58;;;;;;;67.75;14.60;;;;;;;17.03;54.80;101160.56;5044400;28;20374;-69
2021/05/29 09:38:32;;;;;;;9.77;3.80;;;;;;;17.05;50.11;101166.69;5042708;28;20123;-69
2021/05/29 09:40:58;;;;;;;75.55;21.63;;;;;;;17.16;55.89;101165.91;5041350;28;20053;-68
2021/05/29 09:43:25;;;;;;;5.60;3.38;;;;;;;17.01;52.80;101177.78;5043752;28;20102;-68
2021/05/29 09:46:00;;;;;;;6.03;2.67;;;;;;;17.17;49.45;101170.31;5044063;28;20053;-69
2021/05/29 09:48:27;;;;;;;3.58;2.15;;;;;;;17.07;45.99;101166.59;5035641;28;20522;-68
2021/05/29 09:51:06;;;;;;;4.60;2.40;;;;;;;17.19;48.28;101165.69;5037004;28;20069;-68
2021/05/29 09:53:35;;;;;;;5.88;2.40;;;;;;;17.12;47.54;101169.81;5053371;28;20094;-68
2021/05/29 09:56:03;;;;;;;2.38;2.15;;;;;;;17.12;53.40;101169.81;5055208;28;20056;-67
2021/05/29 09:58:51;;;;;;;4.03;2.08;;;;;;;17.36;51.02;101171.66;5039124;28;20079;-67
2021/05/29 10:01:37;;;;;;;4.72;2.75;;;;;;;17.47;49.59;101174.44;5046212;28;20053;-68
2021/05/29 10:04:05;;;;;;;4.05;2.72;;;;;;;17.50;50.72;101168.81;5047441;28;20044;-70
2021/05/29 10:06:32;;;;;;;8.10;3.40;;;;;;;17.63;50.02;101173.28;5038596;28;20053;-71
2021/05/29 10:09:00;;;;;;;4.85;3.15;;;;;;;17.75;53.73;101166.97;5034765;28;20049;-67
2021/05/29 10:11:28;;;;;;;3.50;2.60;;;;;;;17.80;48.77;101176.56;5054181;28;20053;-69
2021/05/29 10:13:54;;;;;;;4.47;2.58;;;;;;;17.83;51.48;101169.09;5048964;28;20081;-69
2021/05/29 10:16:21;;;;;;;5.90;2.95;;;;;;;17.98;51.28;101156.25;5055458;28;20048;-69
2021/05/29 10:18:53;;;;;;;8.15;2.65;;;;;;;18.15;51.14;101173.03;5043494;28;20398;-69
2021/05/29 10:21:26;;;;;;;5.35;3.05;;;;;;;18.30;51.89;101165.59;5035222;28;20080;-68
2021/05/29 10:23:54;;;;;;;6.05;2.53;;;;;;;18.25;49.96;101152.41;5035176;28;20431;-67
2021/05/29 10:26:21;;;;;;;5.53;2.95;;;;;;;18.51;50.70;101170.31;5049454;28;20109;-68
2021/05/29 10:28:48;;;;;;;7.93;3.22;;;;;;;18.74;50.45;101168.44;5054081;28;20053;-68
2021/05/29 10:31:15;;;;;;;4.82;2.72;;;;;;;18.91;50.33;101163.53;5054213;28;20049;-69
2021/05/29 10:33:44;;;;;;;8.98;3.00;;;;;;;19.05;51.14;101163.31;5038484;28;20053;-68
2021/05/29 10:36:48;;;;;;;10.18;2.80;;;;;;;19.08;48.14;101165.78;5035074;28;20386;-68
2021/05/29 10:39:22;;;;;;;9.80;2.55;;;;;;;19.11;47.42;101162.81;5045501;28;20057;-70
2021/05/29 10:42:00;;;;;;;3.13;2.17;;;;;;;19.29;45.13;101165.03;5050233;28;20041;-73
2021/05/29 10:44:44;;;;;;;8.05;2.83;;;;;;;19.27;47.35;101158.84;5055220;28;20045;-71
2021/05/29 10:47:19;;;;;;;4.00;2.08;;;;;;;19.57;46.92;101151.03;5045477;28;20104;-73
2021/05/29 10:49:54;;;;;;;4.35;1.95;;;;;;;19.67;43.03;101150.13;5034850;28;20512;-73
2021/05/29 10:52:30;;;;;;;3.03;1.85;;;;;;;19.81;42.16;101150.81;5037676;28;20096;-73
2021/05/29 10:55:09;;;;;;;4.40;3.03;;;;;;;19.80;44.60;101158.09;5045237;28;20328;-72
2021/05/29 10:58:02;;;;;;;4.40;2.28;;;;;;;19.77;45.24;101149.38;5047457;28;20106;-72
2021/05/29 11:00:35;;;;;;;3.22;2.50;;;;;;;19.60;45.75;101159.75;5054561;28;20057;-70
2021/05/29 11:03:18;;;;;;;3.50;2.30;;;;;;;19.14;46.79;101156.31;5040122;28;20382;-70
2021/05/29 11:05:57;;;;;;;4.63;2.47;;;;;;;18.84;47.28;101146.94;5033548;28;20288;-71
2021/05/29 11:08:54;;;;;;;5.95;2.50;;;;;;;18.80;46.13;101145.47;5053262;28;20049;-70
2021/05/29 11:11:35;;;;;;;4.68;2.40;;;;;;;19.27;46.37;101143.47;5057606;28;20045;-73
2021/05/29 11:14:06;;;;;;;4.13;2.30;;;;;;;19.11;45.89;101135.75;5054610;28;20046;-75
2021/05/29 11:16:45;;;;;;;4.55;2.47;;;;;;;19.20;45.88;101141.41;5052986;28;20131;-73
2021/05/29 11:19:36;;;;;;;5.63;1.92;;;;;;;19.37;46.42;101140.00;5057685;28;20335;-73
2021/05/29 11:22:21;;;;;;;5.18;2.50;;;;;;;19.20;45.41;101135.97;5039107;28;20119;-73
2021/05/29 11:24:48;;;;;;;4.90;2.10;;;;;;;19.38;44.37;101145.28;5038896;28;20057;-73
2021/05/29 11:27:25;;;;;;;4.97;2.20;;;;;;;19.56;45.91;101141.19;5037602;28;20150;-73
2021/05/29 11:30:00;;;;;;;5.00;2.13;;;;;;;19.36;45.40;101141.88;5038507;28;20057;-71
2021/05/29 11:32:40;;;;;;;4.95;2.42;;;;;;;19.57;43.11;101143.78;5053913;28;20060;-72
2021/05/29 11:35:08;;;;;;;6.85;2.83;;;;;;;19.73;44.10;101137.94;5058334;28;20052;-69
2021/05/29 11:37:34;;;;;;;4.05;2.08;;;;;;;19.83;44.02;101140.69;5057658;28;20132;-69
2021/05/29 11:40:01;;;;;;;3.20;2.08;;;;;;;19.89;43.16;101140.16;5055466;28;20083;-72
2021/05/29 11:42:28;;;;;;;3.90;2.00;;;;;;;20.26;44.83;101136.16;5043383;28;20111;-69
2021/05/29 11:45:14;;;;;;;3.78;2.30;;;;;;;20.58;41.45;101139.75;5057653;28;20072;-73
2021/05/29 11:47:42;;;;;;;6.18;1.80;;;;;;;20.29;43.46;101141.34;5052548;28;20068;-72